createdAt,value
2022-09-20T00:01:35.847Z,48.55
2022-09-20T00:04:05.350Z,48.36
2022-09-20T00:06:33.592Z,48.48
2022-09-20T00:09:01.403Z,48.48
2022-09-20T00:11:30.144Z,48.47
2022-09-20T00:13:58.660Z,48.51
2022-09-20T00:16:32.554Z,48.47
2022-09-20T00:19:01.188Z,48.64
2022-09-20T00:21:29.609Z,48.65
2022-09-20T00:24:00.256Z,48.50
2022-09-20T00:26:28.026Z,48.45
2022-09-20T00:28:55.003Z,48.56
2022-09-20T00:31:21.609Z,48.48
2022-09-20T00:34:07.159Z,48.52
2022-09-20T00:36:33.775Z,48.60
2022-09-20T00:39:02.034Z,48.46
2022-09-20T00:41:30.734Z,48.49
2022-09-20T00:43:58.967Z,48.53
2022-09-20T00:46:28.184Z,48.48
2022-09-20T00:49:06.704Z,48.53
2022-09-20T00:51:38.008Z,48.50
2022-09-20T00:54:06.808Z,48.45
2022-09-20T00:56:36.501Z,48.59
2022-09-20T00:59:37.492Z,48.51
2022-09-20T01:02:14.147Z,48.56
2022-09-20T01:04:42.590Z,48.51
2022-09-20T01:07:13.632Z,48.34
2022-09-20T01:09:40.139Z,48.39
2022-09-20T01:12:13.606Z,48.56
2022-09-20T01:14:42.483Z,48.50
2022-09-20T01:17:09.504Z,48.63
2022-09-20T01:20:13.349Z,48.52
2022-09-20T01:23:10.568Z,48.42
2022-09-20T01:25:48.269Z,48.71
2022-09-20T01:28:15.959Z,48.61
2022-09-20T01:31:02.907Z,48.47
2022-09-20T01:33:32.414Z,48.44
2022-09-20T01:36:03.373Z,48.56
2022-09-20T01:38:56.176Z,48.54
2022-09-20T01:41:31.459Z,48.51
2022-09-20T01:44:13.384Z,48.58
2022-09-20T01:46:43.668Z,48.64
2022-09-20T01:49:30.683Z,48.23
2022-09-20T01:52:20.188Z,48.52
2022-09-20T01:55:00.956Z,48.50
2022-09-20T01:57:58.634Z,48.54
2022-09-20T02:00:38.989Z,48.61
2022-09-20T02:03:51.800Z,48.65
2022-09-20T02:06:37.915Z,48.57
2022-09-20T02:09:23.452Z,48.56
2022-09-20T02:12:18.589Z,48.55
2022-09-20T02:15:23.811Z,48.68
2022-09-20T02:18:02.545Z,48.50
2022-09-20T02:20:50.710Z,48.66
2022-09-20T02:23:40.615Z,48.55
2022-09-20T02:27:01.170Z,48.53
2022-09-20T02:29:49.064Z,48.54
2022-09-20T02:32:37.306Z,48.48
2022-09-20T02:35:35.520Z,48.54
2022-09-20T02:38:41.645Z,48.48
2022-09-20T02:41:22.207Z,48.43
2022-09-20T02:44:15.324Z,48.53
2022-09-20T02:47:14.301Z,48.57
2022-09-20T02:50:08.138Z,48.46
2022-09-20T02:52:43.413Z,48.50
2022-09-20T02:55:32.011Z,48.44
2022-09-20T02:58:30.975Z,48.52
2022-09-20T03:01:26.527Z,48.52
2022-09-20T03:04:17.529Z,48.56
2022-09-20T03:07:06.757Z,48.54
2022-09-20T03:10:05.821Z,48.64
2022-09-20T03:12:47.476Z,48.57
2022-09-20T03:15:34.547Z,48.52
2022-09-20T03:18:11.284Z,48.48
2022-09-20T03:21:13.610Z,48.45
2022-09-20T03:23:52.076Z,48.53
2022-09-20T03:26:46.927Z,48.39
2022-09-20T03:29:42.377Z,48.52
2022-09-20T03:32:33.601Z,48.53
2022-09-20T03:35:14.915Z,48.55
2022-09-20T03:37:56.275Z,48.30
2022-09-20T03:40:46.233Z,48.44
2022-09-20T03:43:34.767Z,48.59
2022-09-20T03:46:08.448Z,48.46
2022-09-20T03:49:13.646Z,48.49
2022-09-20T03:52:07.563Z,48.48
2022-09-20T03:54:46.945Z,48.47
2022-09-20T03:57:31.734Z,48.40
2022-09-20T04:00:04.524Z,48.49
2022-09-20T04:02:34.046Z,48.27
2022-09-20T04:05:10.372Z,48.46
2022-09-20T04:07:52.048Z,48.50
2022-09-20T04:10:33.768Z,48.38
2022-09-20T04:13:17.470Z,48.46
2022-09-20T04:15:50.468Z,48.30
2022-09-20T04:18:30.073Z,48.48
2022-09-20T04:21:23.774Z,48.29
2022-09-20T04:23:50.243Z,48.23
2022-09-20T04:26:24.619Z,48.34
2022-09-20T04:29:31.137Z,48.39
2022-09-20T04:32:09.871Z,48.33
2022-09-20T04:35:04.667Z,48.33
2022-09-20T04:37:38.391Z,48.35
2022-09-20T04:40:43.773Z,48.24
2022-09-20T04:43:35.322Z,48.46
2022-09-20T04:46:39.023Z,48.42
2022-09-20T04:49:30.019Z,48.41
2022-09-20T04:52:04.034Z,48.45
2022-09-20T04:54:55.552Z,48.20
2022-09-20T04:57:54.651Z,48.34
2022-09-20T05:00:24.162Z,48.22
2022-09-20T05:03:29.593Z,48.34
2022-09-20T05:06:20.143Z,48.23
2022-09-20T05:09:26.977Z,48.42
2022-09-20T05:12:47.654Z,48.46
2022-09-20T05:15:23.383Z,48.38
2022-09-20T05:18:17.956Z,48.34
2022-09-20T05:21:18.331Z,48.30
2022-09-20T05:24:17.026Z,48.33
2022-09-20T05:27:19.579Z,48.31
2022-09-20T05:29:52.082Z,48.25
2022-09-20T05:32:27.950Z,48.05
2022-09-20T05:35:15.470Z,48.05
2022-09-20T05:38:05.719Z,48.03
2022-09-20T05:40:53.527Z,47.75
2022-09-20T05:43:39.970Z,47.87
2022-09-20T05:46:22.973Z,47.90
2022-09-20T05:49:02.432Z,47.74
2022-09-20T05:51:37.827Z,47.96
2022-09-20T05:54:30.499Z,47.92
2022-09-20T05:57:15.181Z,48.36
2022-09-20T06:00:00.601Z,48.51
2022-09-20T06:02:59.449Z,48.46
2022-09-20T06:05:59.341Z,48.33
2022-09-20T06:08:49.390Z,48.45
2022-09-20T06:11:52.167Z,48.75
2022-09-20T06:14:37.702Z,48.52
2022-09-20T06:17:18.890Z,48.65
2022-09-20T06:20:17.630Z,48.55
2022-09-20T06:22:58.210Z,48.80
2022-09-20T06:25:29.844Z,48.63
2022-09-20T06:28:01.521Z,48.79
2022-09-20T06:30:41.474Z,48.89
2022-09-20T06:33:07.941Z,48.77
2022-09-20T06:35:42.903Z,48.82
2022-09-20T06:38:58.781Z,49.00
2022-09-20T06:41:29.788Z,48.83
2022-09-20T06:44:00.469Z,48.58
2022-09-20T06:46:36.516Z,48.48
2022-09-20T06:49:04.030Z,48.41
2022-09-20T06:51:35.739Z,48.30
2022-09-20T06:54:03.165Z,48.25
2022-09-20T06:56:34.218Z,48.47
2022-09-20T06:59:01.108Z,48.34
2022-09-20T07:01:30.496Z,48.58
2022-09-20T07:03:58.618Z,48.51
2022-09-20T07:06:25.213Z,48.69
2022-09-20T07:08:51.707Z,48.50
2022-09-20T07:11:18.394Z,48.77
2022-09-20T07:13:45.779Z,48.74
2022-09-20T07:16:14.231Z,48.67
2022-09-20T07:18:41.414Z,48.57
2022-09-20T07:21:16.181Z,48.68
2022-09-20T07:23:45.797Z,48.75
2022-09-20T07:26:31.549Z,48.91
2022-09-20T07:28:59.820Z,48.68
2022-09-20T07:31:30.667Z,48.76
2022-09-20T07:33:57.705Z,49.04
2022-09-20T07:36:24.627Z,48.87
2022-09-20T07:38:53.732Z,48.76
2022-09-20T07:41:20.606Z,48.72
2022-09-20T07:44:21.086Z,48.84
2022-09-20T07:46:51.557Z,48.84
2022-09-20T07:49:24.311Z,48.80
2022-09-20T07:51:51.139Z,48.75
2022-09-20T07:54:18.651Z,48.62
2022-09-20T07:56:45.996Z,48.80
2022-09-20T07:59:13.860Z,48.81
2022-09-20T08:01:41.753Z,48.80
2022-09-20T08:04:09.631Z,48.84
2022-09-20T08:06:38.554Z,48.65
2022-09-20T08:09:10.204Z,48.83
2022-09-20T08:11:39.429Z,48.78
2022-09-20T08:14:08.062Z,48.90
2022-09-20T08:16:40.759Z,48.94
2022-09-20T08:19:07.955Z,48.66
2022-09-20T08:21:38.027Z,48.96
2022-09-20T08:24:04.804Z,48.80
2022-09-20T08:26:31.662Z,49.17
2022-09-20T08:28:59.913Z,48.94
2022-09-20T08:31:31.449Z,48.97
2022-09-20T08:33:59.124Z,48.97
2022-09-20T08:36:26.206Z,48.91
2022-09-20T08:41:48.590Z,48.87
2022-09-20T08:44:25.115Z,48.66
2022-09-20T08:47:05.671Z,48.97
2022-09-20T08:49:33.459Z,48.82
2022-09-20T08:52:02.222Z,48.79
2022-09-20T08:54:33.150Z,48.95
2022-09-20T08:57:11.001Z,48.92
2022-09-20T08:59:37.582Z,48.84
2022-09-20T09:02:13.293Z,48.92
2022-09-20T09:04:39.794Z,49.05
2022-09-20T09:07:06.605Z,48.94
2022-09-20T09:09:38.059Z,49.02
2022-09-20T09:12:05.195Z,49.09
2022-09-20T09:14:49.589Z,48.79
2022-09-20T09:17:18.888Z,48.71
2022-09-20T09:19:48.802Z,48.38
2022-09-20T09:22:24.842Z,48.56
2022-09-20T09:25:22.453Z,48.72
2022-09-20T09:28:00.257Z,48.53
2022-09-20T09:30:30.244Z,48.63
2022-09-20T09:33:31.510Z,48.63
2022-09-20T09:36:05.055Z,48.57
2022-09-20T09:38:37.849Z,48.52
2022-09-20T09:41:17.665Z,48.53
2022-09-20T09:44:02.733Z,48.58
2022-09-20T09:46:34.612Z,48.18
2022-09-20T09:49:19.886Z,47.96
2022-09-20T09:52:14.968Z,47.95
2022-09-20T09:54:48.829Z,47.55
2022-09-20T09:57:31.910Z,47.47
2022-09-20T10:00:20.457Z,47.67
2022-09-20T10:02:54.331Z,47.28
2022-09-20T10:05:44.135Z,47.20
2022-09-20T10:08:49.399Z,47.07
2022-09-20T10:11:15.823Z,47.18
2022-09-20T10:13:57.308Z,46.80
2022-09-20T10:16:43.304Z,46.77
2022-09-20T10:19:23.378Z,46.87
2022-09-20T10:22:04.044Z,47.19
2022-09-20T10:24:52.247Z,47.24
2022-09-20T10:28:07.366Z,46.97
2022-09-20T10:31:06.263Z,47.04
2022-09-20T10:33:44.447Z,47.09
2022-09-20T10:36:34.538Z,47.11
2022-09-20T10:39:10.691Z,47.38
2022-09-20T10:42:12.386Z,47.29
2022-09-20T10:44:47.490Z,47.10
2022-09-20T10:47:20.163Z,47.48
2022-09-20T10:49:56.736Z,47.10
2022-09-20T10:52:38.270Z,47.34
2022-09-20T10:55:26.331Z,47.14
2022-09-20T10:58:01.588Z,47.12
2022-09-20T11:00:41.652Z,46.76
2022-09-20T11:03:50.173Z,46.63
2022-09-20T11:06:37.576Z,46.58
2022-09-20T11:09:13.826Z,46.93
2022-09-20T11:11:46.725Z,46.63
2022-09-20T11:14:23.233Z,46.88
2022-09-20T11:17:08.381Z,46.74
2022-09-20T11:20:06.174Z,46.56
2022-09-20T11:22:43.985Z,46.50
2022-09-20T11:25:29.281Z,46.43
2022-09-20T11:28:07.826Z,46.73
2022-09-20T11:30:40.845Z,46.77
2022-09-20T11:33:19.183Z,46.71
2022-09-20T11:35:50.293Z,46.85
2022-09-20T11:38:40.273Z,46.96
2022-09-20T11:41:15.939Z,47.08
2022-09-20T11:43:44.417Z,47.50
2022-09-20T11:46:18.113Z,47.88
2022-09-20T11:49:02.773Z,47.65
2022-09-20T11:51:35.245Z,47.81
2022-09-20T11:54:28.186Z,47.88
2022-09-20T11:56:57.037Z,47.73
2022-09-20T11:59:37.204Z,47.80
2022-09-20T12:02:16.041Z,47.66
2022-09-20T12:04:49.499Z,48.24
2022-09-20T12:07:18.329Z,48.22
2022-09-20T12:09:54.251Z,48.22
2022-09-20T12:12:30.558Z,47.91
2022-09-20T12:15:00.346Z,47.99
2022-09-20T12:17:45.716Z,47.88
2022-09-20T12:20:42.481Z,48.00
2022-09-20T12:23:43.247Z,48.56
2022-09-20T12:26:22.119Z,48.49
2022-09-20T12:28:54.038Z,48.09
2022-09-20T12:31:29.450Z,48.55
2022-09-20T12:34:02.285Z,48.82
2022-09-20T12:36:36.241Z,48.71
2022-09-20T12:39:11.988Z,48.36
2022-09-20T12:42:02.826Z,48.28
2022-09-20T12:44:41.024Z,48.51
2022-09-20T12:47:10.582Z,48.37
2022-09-20T12:50:01.569Z,48.32
2022-09-20T12:52:58.480Z,48.16
2022-09-20T12:55:40.876Z,48.91
2022-09-20T12:58:19.343Z,49.04
2022-09-20T13:00:59.282Z,49.14
2022-09-20T13:03:45.851Z,48.98
2022-09-20T13:06:16.426Z,48.83
2022-09-20T13:08:48.038Z,48.50
2022-09-20T13:11:20.261Z,48.33
2022-09-20T13:13:49.575Z,48.27
2022-09-20T13:16:24.101Z,48.62
2022-09-20T13:19:06.806Z,48.59
2022-09-20T13:21:37.081Z,48.40
2022-09-20T13:24:05.257Z,48.52
2022-09-20T13:26:40.840Z,48.36
2022-09-20T13:29:10.256Z,47.94
2022-09-20T13:31:36.864Z,48.18
2022-09-20T13:34:25.937Z,47.67
2022-09-20T13:36:58.101Z,48.04
2022-09-20T13:39:37.292Z,47.61
2022-09-20T13:42:19.352Z,47.80
2022-09-20T13:44:47.907Z,47.71
2022-09-20T13:47:27.786Z,47.35
2022-09-20T13:50:00.253Z,47.72
2022-09-20T13:52:29.354Z,47.70
2022-09-20T13:54:56.397Z,47.70
2022-09-20T13:57:27.484Z,47.53
2022-09-20T13:59:55.011Z,47.72
2022-09-20T14:02:31.726Z,47.67
2022-09-20T14:05:01.421Z,48.46
2022-09-20T14:07:29.538Z,48.37
2022-09-20T14:09:58.158Z,48.29
2022-09-20T14:12:26.566Z,48.50
2022-09-20T14:14:54.439Z,48.96
2022-09-20T14:17:24.579Z,48.98
2022-09-20T14:19:54.474Z,49.04
2022-09-20T14:22:26.816Z,49.10
2022-09-20T14:25:12.487Z,49.17
2022-09-20T14:27:39.318Z,49.33
2022-09-20T14:30:07.368Z,49.45
2022-09-20T14:32:45.624Z,49.56
2022-09-20T14:35:19.063Z,49.64
2022-09-20T14:37:50.050Z,49.38
2022-09-20T14:40:21.489Z,49.60
2022-09-20T14:42:59.215Z,49.89
2022-09-20T14:45:34.910Z,50.18
2022-09-20T14:48:08.047Z,50.04
2022-09-20T14:50:39.280Z,49.74
2022-09-20T14:53:26.826Z,50.17
2022-09-20T14:56:05.594Z,50.19
2022-09-20T14:58:33.543Z,49.71
2022-09-20T15:01:23.066Z,50.04
2022-09-20T15:03:50.346Z,49.90
2022-09-20T15:06:16.915Z,49.93
2022-09-20T15:08:46.600Z,50.13
2022-09-20T15:11:18.641Z,49.98
2022-09-20T15:13:45.583Z,49.84
2022-09-20T15:16:14.809Z,50.09
2022-09-20T15:18:42.954Z,49.90
2022-09-20T15:21:13.293Z,49.86
2022-09-20T15:23:40.182Z,49.91
2022-09-20T15:26:07.673Z,49.83
2022-09-20T15:28:34.667Z,49.75
2022-09-20T15:31:01.146Z,49.72
2022-09-20T15:33:30.679Z,50.05
2022-09-20T15:35:57.331Z,49.74
2022-09-20T15:38:26.785Z,49.91
2022-09-20T15:40:54.006Z,49.96
2022-09-20T15:43:26.397Z,50.17
2022-09-20T15:45:55.967Z,49.75
2022-09-20T15:48:27.339Z,49.71
2022-09-20T15:51:06.716Z,49.83
2022-09-20T15:53:36.038Z,49.86
2022-09-20T15:56:05.334Z,49.65
2022-09-20T15:58:36.327Z,49.65
2022-09-20T16:01:08.125Z,49.72
2022-09-20T16:03:36.108Z,49.77
2022-09-20T16:06:07.359Z,49.66
2022-09-20T16:08:39.270Z,49.51
2022-09-20T16:11:07.974Z,49.83
2022-09-20T16:13:38.720Z,49.91
2022-09-20T16:16:07.358Z,49.81
2022-09-20T16:18:54.453Z,50.06
2022-09-20T16:21:21.576Z,50.23
2022-09-20T16:23:50.446Z,49.97
2022-09-20T16:26:17.510Z,50.11
2022-09-20T16:28:47.561Z,50.57
2022-09-20T16:31:41.867Z,50.42
2022-09-20T16:34:12.668Z,50.46
2022-09-20T16:36:43.725Z,50.44
2022-09-20T16:39:10.780Z,50.00
2022-09-20T16:41:38.169Z,50.22
2022-09-20T16:44:05.605Z,50.19
2022-09-20T16:46:32.759Z,50.49
2022-09-20T16:49:00.887Z,50.32
2022-09-20T16:51:33.475Z,50.91
2022-09-20T16:54:12.222Z,50.76
2022-09-20T16:56:41.509Z,50.50
2022-09-20T16:59:08.522Z,50.44
2022-09-20T17:01:36.943Z,50.47
2022-09-20T17:04:08.311Z,50.15
2022-09-20T17:06:37.162Z,50.11
2022-09-20T17:09:05.670Z,50.11
2022-09-20T17:11:34.925Z,50.21
2022-09-20T17:14:01.432Z,50.37
2022-09-20T17:16:30.933Z,50.18
2022-09-20T17:18:59.967Z,50.23
2022-09-20T17:21:28.496Z,50.38
2022-09-20T17:23:59.511Z,50.25
2022-09-20T17:26:31.358Z,50.00
2022-09-20T17:28:58.962Z,50.00
2022-09-20T17:31:31.629Z,49.96
2022-09-20T17:34:00.204Z,50.10
2022-09-20T17:36:32.162Z,50.25
2022-09-20T17:39:04.240Z,49.84
2022-09-20T17:41:31.590Z,49.82
2022-09-20T17:43:59.841Z,50.15
2022-09-20T17:46:31.048Z,49.78
2022-09-20T17:49:00.590Z,49.80
2022-09-20T17:51:29.538Z,50.19
2022-09-20T17:53:56.068Z,49.94
2022-09-20T17:56:24.761Z,49.84
2022-09-20T17:58:51.257Z,50.09
2022-09-20T18:01:20.350Z,50.07
2022-09-20T18:03:48.868Z,49.98
2022-09-20T18:06:15.425Z,49.88
2022-09-20T18:08:45.803Z,50.11
2022-09-20T18:11:12.778Z,49.97
2022-09-20T18:13:39.281Z,49.91
2022-09-20T18:16:10.941Z,49.96
2022-09-20T18:18:39.771Z,50.08
2022-09-20T18:21:22.383Z,50.11
2022-09-20T18:23:49.922Z,49.85
2022-09-20T18:26:22.006Z,50.20
2022-09-20T18:29:12.171Z,50.29
2022-09-20T18:31:43.192Z,50.05
2022-09-20T18:34:12.625Z,49.78
2022-09-20T18:36:39.626Z,50.00
2022-09-20T18:39:07.405Z,50.23
2022-09-20T18:41:36.759Z,50.04
2022-09-20T18:44:07.126Z,50.19
2022-09-20T18:46:37.881Z,49.76
2022-09-20T18:49:09.272Z,49.89
2022-09-20T18:51:39.709Z,49.92
2022-09-20T18:54:09.953Z,50.10
2022-09-20T18:56:38.482Z,50.03
2022-09-20T18:59:26.680Z,49.94
2022-09-20T19:02:14.575Z,50.27
2022-09-20T19:05:13.988Z,50.38
2022-09-20T19:07:46.575Z,50.33
2022-09-20T19:11:01.211Z,50.23
2022-09-20T19:13:37.045Z,49.95
2022-09-20T19:16:21.218Z,50.03
2022-09-20T19:19:25.698Z,50.27
2022-09-20T19:21:58.542Z,50.06
2022-09-20T19:24:43.194Z,50.46
2022-09-20T19:27:14.103Z,49.97
2022-09-20T19:29:41.406Z,49.92
2022-09-20T19:32:15.974Z,50.20
2022-09-20T19:34:44.687Z,49.96
2022-09-20T19:37:24.632Z,50.00
2022-09-20T19:40:03.357Z,50.01
2022-09-20T19:42:55.947Z,50.29
2022-09-20T19:45:31.660Z,50.15
2022-09-20T19:48:24.435Z,50.29
2022-09-20T19:50:54.605Z,50.06
2022-09-20T19:53:24.168Z,49.97
2022-09-20T19:56:08.065Z,49.96
2022-09-20T19:58:35.510Z,49.90
2022-09-20T20:01:02.281Z,49.93
2022-09-20T20:03:29.894Z,49.65
2022-09-20T20:06:22.626Z,49.84
2022-09-20T20:09:29.581Z,49.93
2022-09-20T20:12:05.201Z,50.10
2022-09-20T20:14:49.100Z,49.89
2022-09-20T20:17:21.432Z,49.83
2022-09-20T20:20:22.414Z,49.76
2022-09-20T20:23:07.438Z,49.75
2022-09-20T20:26:00.092Z,49.57
2022-09-20T20:28:27.411Z,49.45
2022-09-20T20:30:57.829Z,49.70
2022-09-20T20:33:26.854Z,49.35
2022-09-20T20:35:58.543Z,49.67
2022-09-20T20:38:26.633Z,49.63
2022-09-20T20:41:14.538Z,49.49
2022-09-20T20:43:42.911Z,49.38
2022-09-20T20:46:14.102Z,49.35
2022-09-20T20:48:41.078Z,49.35
2022-09-20T20:51:10.116Z,49.19
2022-09-20T20:53:39.377Z,49.23
2022-09-20T20:56:12.205Z,49.15
2022-09-20T20:58:41.490Z,49.43
2022-09-20T21:01:15.580Z,49.69
2022-09-20T21:03:45.899Z,49.26
2022-09-20T21:06:13.139Z,49.30
2022-09-20T21:08:43.844Z,49.19
2022-09-20T21:11:18.790Z,49.52
2022-09-20T21:13:47.058Z,48.98
2022-09-20T21:16:16.667Z,49.33
2022-09-20T21:18:45.433Z,49.19
2022-09-20T21:21:23.850Z,49.26
2022-09-20T21:23:52.590Z,49.30
2022-09-20T21:26:20.270Z,49.06
2022-09-20T21:28:57.964Z,48.95
2022-09-20T21:31:26.043Z,49.01
2022-09-20T21:33:53.266Z,49.14
2022-09-20T21:36:22.586Z,48.97
2022-09-20T21:38:49.795Z,49.13
2022-09-20T21:41:20.026Z,49.04
2022-09-20T21:43:48.963Z,48.95
2022-09-20T21:46:19.266Z,49.11
2022-09-20T21:48:47.544Z,48.96
2022-09-20T21:51:17.048Z,48.78
2022-09-20T21:53:44.702Z,49.13
2022-09-20T21:56:13.624Z,48.98
2022-09-20T21:58:40.430Z,48.75
2022-09-20T22:01:15.652Z,48.80
2022-09-20T22:03:44.427Z,48.83
2022-09-20T22:06:17.498Z,48.60
2022-09-20T22:08:58.539Z,48.87
2022-09-20T22:11:34.464Z,48.95
2022-09-20T22:14:01.115Z,48.91
2022-09-20T22:16:32.787Z,48.63
2022-09-20T22:19:00.491Z,48.46
2022-09-20T22:21:33.488Z,48.65
2022-09-20T22:24:02.770Z,48.59
2022-09-20T22:26:32.119Z,48.60
2022-09-20T22:28:58.893Z,48.42
2022-09-20T22:31:28.278Z,48.60
2022-09-20T22:33:57.134Z,48.42
2022-09-20T22:36:29.817Z,48.32
2022-09-20T22:38:56.719Z,48.47
2022-09-20T22:41:24.351Z,48.52
2022-09-20T22:43:51.022Z,48.48
2022-09-20T22:46:20.297Z,48.51
2022-09-20T22:48:47.499Z,48.50
2022-09-20T22:51:20.670Z,48.29
2022-09-20T22:53:48.084Z,48.29
2022-09-20T22:56:18.703Z,48.43
2022-09-20T22:58:47.628Z,48.25
2022-09-20T23:01:25.825Z,48.41
2022-09-20T23:04:01.045Z,48.12
2022-09-20T23:06:30.949Z,48.45
2022-09-20T23:09:02.414Z,48.32
2022-09-20T23:11:29.562Z,48.48
2022-09-20T23:13:58.535Z,48.35
2022-09-20T23:16:28.771Z,48.33
2022-09-20T23:18:56.942Z,48.47
2022-09-20T23:21:24.536Z,48.20
2022-09-20T23:23:59.604Z,48.22
2022-09-20T23:26:29.828Z,48.35
2022-09-20T23:29:01.531Z,48.28
2022-09-20T23:31:29.509Z,48.52
2022-09-20T23:33:58.319Z,48.39
2022-09-20T23:36:27.234Z,48.20
2022-09-20T23:38:54.138Z,48.09
2022-09-20T23:41:22.946Z,48.41
2022-09-20T23:43:49.758Z,48.27
2022-09-20T23:46:18.263Z,48.35
2022-09-20T23:48:45.606Z,48.02
2022-09-20T23:51:15.140Z,48.21
2022-09-20T23:53:42.856Z,48.29
2022-09-20T23:56:11.390Z,48.35
2022-09-20T23:58:39.758Z,48.28
